sensor_id;sensor_type;location;lat;lon;timestamp;temperature;humidity
30572;DHT22;17348;50.948;10.696;2024-02-28T00:00:04;4.90;99.90
30572;DHT22;17348;50.948;10.696;2024-02-28T00:03:07;4.90;99.90
30572;DHT22;17348;50.948;10.696;2024-02-28T00:06:09;4.80;99.90
30572;DHT22;17348;50.948;10.696;2024-02-28T00:09:12;4.80;99.90
30572;DHT22;17348;50.948;10.696;2024-02-28T00:12:15;4.80;99.90
30572;DHT22;17348;50.948;10.696;2024-02-28T00:15:19;4.80;99.90
30572;DHT22;17348;50.948;10.696;2024-02-28T00:18:21;4.80;99.90
30572;DHT22;17348;50.948;10.696;2024-02-28T00:21:24;4.70;99.90
30572;DHT22;17348;50.948;10.696;2024-02-28T00:24:27;4.70;99.90
30572;DHT22;17348;50.948;10.696;2024-02-28T00:27:30;4.70;99.90
30572;DHT22;17348;50.948;10.696;2024-02-28T00:30:34;4.70;99.90
30572;DHT22;17348;50.948;10.696;2024-02-28T00:33:36;4.70;99.90
30572;DHT22;17348;50.948;10.696;2024-02-28T00:36:38;4.70;99.90
30572;DHT22;17348;50.948;10.696;2024-02-28T00:39:43;4.70;99.90
30572;DHT22;17348;50.948;10.696;2024-02-28T00:42:45;4.80;99.90
30572;DHT22;17348;50.948;10.696;2024-02-28T00:45:50;4.80;99.90
30572;DHT22;17348;50.948;10.696;2024-02-28T00:48:52;4.80;99.90
30572;DHT22;17348;50.948;10.696;2024-02-28T00:51:55;4.80;99.90
30572;DHT22;17348;50.948;10.696;2024-02-28T00:54:57;4.80;99.90
30572;DHT22;17348;50.948;10.696;2024-02-28T00:58:00;4.80;99.90
30572;DHT22;17348;50.948;10.696;2024-02-28T01:01:04;4.80;99.90
30572;DHT22;17348;50.948;10.696;2024-02-28T01:04:07;4.80;99.90
30572;DHT22;17348;50.948;10.696;2024-02-28T01:07:09;4.80;99.90
30572;DHT22;17348;50.948;10.696;2024-02-28T01:10:11;4.80;99.90
30572;DHT22;17348;50.948;10.696;2024-02-28T01:13:14;4.80;99.90
30572;DHT22;17348;50.948;10.696;2024-02-28T01:16:17;4.80;99.90
30572;DHT22;17348;50.948;10.696;2024-02-28T01:19:20;4.80;99.90
30572;DHT22;17348;50.948;10.696;2024-02-28T01:22:22;4.90;99.90
30572;DHT22;17348;50.948;10.696;2024-02-28T01:25:24;4.90;99.90
30572;DHT22;17348;50.948;10.696;2024-02-28T01:28:27;5.00;99.90
30572;DHT22;17348;50.948;10.696;2024-02-28T01:31:30;5.00;99.90
30572;DHT22;17348;50.948;10.696;2024-02-28T01:34:33;5.00;99.90
30572;DHT22;17348;50.948;10.696;2024-02-28T01:37:35;5.00;99.90
30572;DHT22;17348;50.948;10.696;2024-02-28T01:40:37;5.00;99.90
30572;DHT22;17348;50.948;10.696;2024-02-28T01:43:40;5.00;99.90
30572;DHT22;17348;50.948;10.696;2024-02-28T01:46:44;5.00;99.90
30572;DHT22;17348;50.948;10.696;2024-02-28T01:49:50;5.10;99.90
30572;DHT22;17348;50.948;10.696;2024-02-28T01:52:54;5.10;99.90
30572;DHT22;17348;50.948;10.696;2024-02-28T01:55:57;5.10;99.90
30572;DHT22;17348;50.948;10.696;2024-02-28T01:58:59;5.10;99.90
30572;DHT22;17348;50.948;10.696;2024-02-28T02:02:04;5.10;99.90
30572;DHT22;17348;50.948;10.696;2024-02-28T02:05:06;5.10;99.90
30572;DHT22;17348;50.948;10.696;2024-02-28T02:08:09;5.10;99.90
30572;DHT22;17348;50.948;10.696;2024-02-28T02:11:12;5.20;99.90
30572;DHT22;17348;50.948;10.696;2024-02-28T02:14:16;5.10;99.90
30572;DHT22;17348;50.948;10.696;2024-02-28T02:17:20;5.10;99.90
30572;DHT22;17348;50.948;10.696;2024-02-28T02:20:22;5.00;99.90
30572;DHT22;17348;50.948;10.696;2024-02-28T02:23:26;5.00;99.90
30572;DHT22;17348;50.948;10.696;2024-02-28T02:26:29;4.90;99.90
30572;DHT22;17348;50.948;10.696;2024-02-28T02:29:31;4.90;99.90
30572;DHT22;17348;50.948;10.696;2024-02-28T02:32:33;4.90;99.90
30572;DHT22;17348;50.948;10.696;2024-02-28T02:35:36;4.80;99.90
30572;DHT22;17348;50.948;10.696;2024-02-28T02:38:40;4.80;99.90
30572;DHT22;17348;50.948;10.696;2024-02-28T02:41:42;4.90;99.90
30572;DHT22;17348;50.948;10.696;2024-02-28T02:44:48;4.90;99.90
30572;DHT22;17348;50.948;10.696;2024-02-28T02:47:50;4.90;99.90
30572;DHT22;17348;50.948;10.696;2024-02-28T02:50:52;4.90;99.90
30572;DHT22;17348;50.948;10.696;2024-02-28T02:53:56;4.90;99.90
30572;DHT22;17348;50.948;10.696;2024-02-28T02:56:58;4.90;99.90
30572;DHT22;17348;50.948;10.696;2024-02-28T03:00:00;4.90;99.90
30572;DHT22;17348;50.948;10.696;2024-02-28T03:03:04;4.90;99.90
30572;DHT22;17348;50.948;10.696;2024-02-28T03:06:06;4.90;99.90
30572;DHT22;17348;50.948;10.696;2024-02-28T03:09:12;4.90;99.90
30572;DHT22;17348;50.948;10.696;2024-02-28T03:12:14;4.90;99.90
30572;DHT22;17348;50.948;10.696;2024-02-28T03:15:16;4.80;99.90
30572;DHT22;17348;50.948;10.696;2024-02-28T03:18:19;4.80;99.90
30572;DHT22;17348;50.948;10.696;2024-02-28T03:21:21;4.80;99.90
30572;DHT22;17348;50.948;10.696;2024-02-28T03:24:25;4.80;99.90
30572;DHT22;17348;50.948;10.696;2024-02-28T03:27:27;4.80;99.90
30572;DHT22;17348;50.948;10.696;2024-02-28T03:30:29;4.70;99.90
30572;DHT22;17348;50.948;10.696;2024-02-28T03:33:31;4.70;99.90
30572;DHT22;17348;50.948;10.696;2024-02-28T03:36:35;4.70;99.90
30572;DHT22;17348;50.948;10.696;2024-02-28T03:39:39;4.70;99.90
30572;DHT22;17348;50.948;10.696;2024-02-28T03:42:41;4.60;99.90
30572;DHT22;17348;50.948;10.696;2024-02-28T03:45:43;4.60;99.90
30572;DHT22;17348;50.948;10.696;2024-02-28T03:48:46;4.60;99.90
30572;DHT22;17348;50.948;10.696;2024-02-28T03:51:48;4.60;99.90
30572;DHT22;17348;50.948;10.696;2024-02-28T03:54:52;4.60;99.90
30572;DHT22;17348;50.948;10.696;2024-02-28T03:57:54;4.60;99.90
30572;DHT22;17348;50.948;10.696;2024-02-28T04:00:56;4.60;99.90
30572;DHT22;17348;50.948;10.696;2024-02-28T04:03:59;4.60;99.90
30572;DHT22;17348;50.948;10.696;2024-02-28T04:07:01;4.50;99.90
30572;DHT22;17348;50.948;10.696;2024-02-28T04:10:06;4.50;99.90
30572;DHT22;17348;50.948;10.696;2024-02-28T04:13:08;4.50;99.90
30572;DHT22;17348;50.948;10.696;2024-02-28T04:16:11;4.50;99.90
30572;DHT22;17348;50.948;10.696;2024-02-28T04:19:13;4.50;99.90
30572;DHT22;17348;50.948;10.696;2024-02-28T04:22:16;4.50;99.90
30572;DHT22;17348;50.948;10.696;2024-02-28T04:25:19;4.50;99.90
30572;DHT22;17348;50.948;10.696;2024-02-28T04:28:21;4.60;99.90
30572;DHT22;17348;50.948;10.696;2024-02-28T04:31:24;4.50;99.90
30572;DHT22;17348;50.948;10.696;2024-02-28T04:34:26;4.50;99.90
30572;DHT22;17348;50.948;10.696;2024-02-28T04:37:28;4.50;99.90
30572;DHT22;17348;50.948;10.696;2024-02-28T04:40:32;4.50;99.90
30572;DHT22;17348;50.948;10.696;2024-02-28T04:43:34;4.40;99.90
30572;DHT22;17348;50.948;10.696;2024-02-28T04:46:37;4.40;99.90
30572;DHT22;17348;50.948;10.696;2024-02-28T04:49:39;4.40;99.90
30572;DHT22;17348;50.948;10.696;2024-02-28T04:52:42;4.40;99.90
30572;DHT22;17348;50.948;10.696;2024-02-28T04:55:45;4.40;99.90
30572;DHT22;17348;50.948;10.696;2024-02-28T04:58:48;4.40;99.90
30572;DHT22;17348;50.948;10.696;2024-02-28T05:01:50;4.40;99.90
30572;DHT22;17348;50.948;10.696;2024-02-28T05:04:53;4.40;99.90
30572;DHT22;17348;50.948;10.696;2024-02-28T05:07:55;4.30;99.90
30572;DHT22;17348;50.948;10.696;2024-02-28T05:10:58;4.20;99.90
30572;DHT22;17348;50.948;10.696;2024-02-28T05:14:01;4.20;99.90
30572;DHT22;17348;50.948;10.696;2024-02-28T05:17:03;4.10;99.90
30572;DHT22;17348;50.948;10.696;2024-02-28T05:20:07;4.00;99.90
30572;DHT22;17348;50.948;10.696;2024-02-28T05:23:10;3.90;99.90
30572;DHT22;17348;50.948;10.696;2024-02-28T05:26:13;3.80;99.90
30572;DHT22;17348;50.948;10.696;2024-02-28T05:29:16;3.60;99.90
30572;DHT22;17348;50.948;10.696;2024-02-28T05:32:18;3.50;99.90
30572;DHT22;17348;50.948;10.696;2024-02-28T05:35:22;3.40;99.90
30572;DHT22;17348;50.948;10.696;2024-02-28T05:38:24;3.30;99.90
30572;DHT22;17348;50.948;10.696;2024-02-28T05:41:28;3.20;99.90
30572;DHT22;17348;50.948;10.696;2024-02-28T05:44:30;3.20;99.90
30572;DHT22;17348;50.948;10.696;2024-02-28T05:47:32;3.10;99.90
30572;DHT22;17348;50.948;10.696;2024-02-28T05:50:35;3.00;99.90
30572;DHT22;17348;50.948;10.696;2024-02-28T05:53:37;3.00;99.90
30572;DHT22;17348;50.948;10.696;2024-02-28T05:56:41;2.90;99.90
30572;DHT22;17348;50.948;10.696;2024-02-28T05:59:44;2.90;99.90
30572;DHT22;17348;50.948;10.696;2024-02-28T06:02:46;2.90;99.90
30572;DHT22;17348;50.948;10.696;2024-02-28T06:05:48;3.00;99.90
30572;DHT22;17348;50.948;10.696;2024-02-28T06:08:51;3.00;99.90
30572;DHT22;17348;50.948;10.696;2024-02-28T06:11:54;3.00;99.90
30572;DHT22;17348;50.948;10.696;2024-02-28T06:14:57;3.10;99.90
30572;DHT22;17348;50.948;10.696;2024-02-28T06:17:59;3.40;99.90
30572;DHT22;17348;50.948;10.696;2024-02-28T06:21:02;3.50;99.90
30572;DHT22;17348;50.948;10.696;2024-02-28T06:24:05;3.60;99.90
30572;DHT22;17348;50.948;10.696;2024-02-28T06:27:08;3.70;99.90
30572;DHT22;17348;50.948;10.696;2024-02-28T06:30:14;3.80;99.90
30572;DHT22;17348;50.948;10.696;2024-02-28T06:33:17;3.80;99.90
30572;DHT22;17348;50.948;10.696;2024-02-28T06:36:20;3.80;99.90
30572;DHT22;17348;50.948;10.696;2024-02-28T06:39:22;3.80;99.90
30572;DHT22;17348;50.948;10.696;2024-02-28T06:42:26;3.80;99.90
30572;DHT22;17348;50.948;10.696;2024-02-28T06:45:29;4.40;99.90
30572;DHT22;17348;50.948;10.696;2024-02-28T06:48:32;4.30;99.90
30572;DHT22;17348;50.948;10.696;2024-02-28T06:51:34;4.20;99.90
30572;DHT22;17348;50.948;10.696;2024-02-28T06:54:36;4.20;99.90
30572;DHT22;17348;50.948;10.696;2024-02-28T06:57:41;4.20;99.90
30572;DHT22;17348;50.948;10.696;2024-02-28T07:00:44;4.30;99.90
30572;DHT22;17348;50.948;10.696;2024-02-28T07:03:46;5.20;99.90
30572;DHT22;17348;50.948;10.696;2024-02-28T07:06:48;6.70;99.90
30572;DHT22;17348;50.948;10.696;2024-02-28T07:09:51;7.00;99.90
30572;DHT22;17348;50.948;10.696;2024-02-28T07:12:55;7.60;99.90
30572;DHT22;17348;50.948;10.696;2024-02-28T07:15:58;7.40;99.90
30572;DHT22;17348;50.948;10.696;2024-02-28T07:19:01;7.40;99.90
30572;DHT22;17348;50.948;10.696;2024-02-28T07:22:03;7.80;99.90
30572;DHT22;17348;50.948;10.696;2024-02-28T07:25:07;8.20;99.90
30572;DHT22;17348;50.948;10.696;2024-02-28T07:28:10;8.80;99.90
30572;DHT22;17348;50.948;10.696;2024-02-28T07:31:14;9.80;99.90
30572;DHT22;17348;50.948;10.696;2024-02-28T07:34:17;10.00;99.90
30572;DHT22;17348;50.948;10.696;2024-02-28T07:37:19;9.80;99.90
30572;DHT22;17348;50.948;10.696;2024-02-28T07:40:21;10.00;99.90
30572;DHT22;17348;50.948;10.696;2024-02-28T07:43:25;11.00;99.90
30572;DHT22;17348;50.948;10.696;2024-02-28T07:46:27;12.00;99.90
30572;DHT22;17348;50.948;10.696;2024-02-28T07:49:30;12.00;99.90
30572;DHT22;17348;50.948;10.696;2024-02-28T07:52:33;12.00;99.90
30572;DHT22;17348;50.948;10.696;2024-02-28T07:55:36;11.30;99.90
30572;DHT22;17348;50.948;10.696;2024-02-28T07:58:41;10.60;99.90
30572;DHT22;17348;50.948;10.696;2024-02-28T08:01:43;10.40;99.90
30572;DHT22;17348;50.948;10.696;2024-02-28T08:04:45;9.80;99.90
30572;DHT22;17348;50.948;10.696;2024-02-28T08:07:48;9.30;99.90
30572;DHT22;17348;50.948;10.696;2024-02-28T08:10:50;8.60;99.90
30572;DHT22;17348;50.948;10.696;2024-02-28T08:13:55;8.10;99.90
30572;DHT22;17348;50.948;10.696;2024-02-28T08:16:57;7.90;99.90
30572;DHT22;17348;50.948;10.696;2024-02-28T08:20:00;7.70;99.90
30572;DHT22;17348;50.948;10.696;2024-02-28T08:23:02;7.50;99.90
30572;DHT22;17348;50.948;10.696;2024-02-28T08:26:04;7.30;99.90
30572;DHT22;17348;50.948;10.696;2024-02-28T08:29:08;7.00;99.90
30572;DHT22;17348;50.948;10.696;2024-02-28T08:32:11;6.80;99.90
30572;DHT22;17348;50.948;10.696;2024-02-28T08:35:13;6.60;99.90
30572;DHT22;17348;50.948;10.696;2024-02-28T08:38:15;6.50;99.90
30572;DHT22;17348;50.948;10.696;2024-02-28T08:41:18;6.50;99.90
30572;DHT22;17348;50.948;10.696;2024-02-28T08:44:21;6.40;99.90
30572;DHT22;17348;50.948;10.696;2024-02-28T08:47:24;6.30;99.90
30572;DHT22;17348;50.948;10.696;2024-02-28T08:50:27;6.10;99.90
30572;DHT22;17348;50.948;10.696;2024-02-28T08:53:29;6.10;99.90
30572;DHT22;17348;50.948;10.696;2024-02-28T08:56:32;6.10;99.90
30572;DHT22;17348;50.948;10.696;2024-02-28T08:59:35;6.10;99.90
30572;DHT22;17348;50.948;10.696;2024-02-28T09:02:38;6.30;99.90
30572;DHT22;17348;50.948;10.696;2024-02-28T09:05:40;6.20;99.90
30572;DHT22;17348;50.948;10.696;2024-02-28T09:08:43;6.10;99.90
30572;DHT22;17348;50.948;10.696;2024-02-28T09:11:45;6.10;99.90
30572;DHT22;17348;50.948;10.696;2024-02-28T09:14:49;5.90;99.90
30572;DHT22;17348;50.948;10.696;2024-02-28T09:17:58;5.90;99.90
30572;DHT22;17348;50.948;10.696;2024-02-28T09:21:02;5.90;99.90
30572;DHT22;17348;50.948;10.696;2024-02-28T09:24:05;5.90;99.90
30572;DHT22;17348;50.948;10.696;2024-02-28T09:27:07;6.00;99.90
30572;DHT22;17348;50.948;10.696;2024-02-28T09:30:11;5.90;99.90
30572;DHT22;17348;50.948;10.696;2024-02-28T09:33:14;6.00;99.90
30572;DHT22;17348;50.948;10.696;2024-02-28T09:36:16;6.10;99.90
30572;DHT22;17348;50.948;10.696;2024-02-28T09:39:19;6.10;99.90
30572;DHT22;17348;50.948;10.696;2024-02-28T09:42:22;6.00;99.90
30572;DHT22;17348;50.948;10.696;2024-02-28T09:45:26;6.00;99.90
30572;DHT22;17348;50.948;10.696;2024-02-28T09:48:31;6.00;99.90
30572;DHT22;17348;50.948;10.696;2024-02-28T09:51:34;5.90;99.90
30572;DHT22;17348;50.948;10.696;2024-02-28T09:54:37;5.90;99.90
30572;DHT22;17348;50.948;10.696;2024-02-28T09:57:41;6.00;99.90
30572;DHT22;17348;50.948;10.696;2024-02-28T10:00:46;5.90;99.90
30572;DHT22;17348;50.948;10.696;2024-02-28T10:03:51;5.90;99.90
30572;DHT22;17348;50.948;10.696;2024-02-28T10:06:53;6.20;99.90
30572;DHT22;17348;50.948;10.696;2024-02-28T10:09:56;6.10;99.90
30572;DHT22;17348;50.948;10.696;2024-02-28T10:12:58;6.20;99.90
30572;DHT22;17348;50.948;10.696;2024-02-28T10:16:02;6.30;99.90
30572;DHT22;17348;50.948;10.696;2024-02-28T10:19:05;6.40;99.90
30572;DHT22;17348;50.948;10.696;2024-02-28T10:22:07;6.30;99.90
30572;DHT22;17348;50.948;10.696;2024-02-28T10:25:09;6.40;99.90
30572;DHT22;17348;50.948;10.696;2024-02-28T10:28:12;6.40;99.90
30572;DHT22;17348;50.948;10.696;2024-02-28T10:31:17;6.40;99.90
30572;DHT22;17348;50.948;10.696;2024-02-28T10:34:19;6.50;99.90
30572;DHT22;17348;50.948;10.696;2024-02-28T10:37:22;6.50;99.90
30572;DHT22;17348;50.948;10.696;2024-02-28T10:40:25;6.60;99.90
30572;DHT22;17348;50.948;10.696;2024-02-28T10:43:28;6.70;99.90
30572;DHT22;17348;50.948;10.696;2024-02-28T10:46:32;6.70;99.90
30572;DHT22;17348;50.948;10.696;2024-02-28T10:49:35;6.80;99.90
30572;DHT22;17348;50.948;10.696;2024-02-28T10:52:43;6.90;99.90
30572;DHT22;17348;50.948;10.696;2024-02-28T10:55:48;6.90;99.90
30572;DHT22;17348;50.948;10.696;2024-02-28T10:58:52;7.00;99.90
30572;DHT22;17348;50.948;10.696;2024-02-28T11:01:55;7.10;99.90
30572;DHT22;17348;50.948;10.696;2024-02-28T11:04:58;7.20;99.90
30572;DHT22;17348;50.948;10.696;2024-02-28T11:08:02;7.20;99.90
30572;DHT22;17348;50.948;10.696;2024-02-28T11:11:05;7.30;99.90
30572;DHT22;17348;50.948;10.696;2024-02-28T11:14:15;7.50;99.90
30572;DHT22;17348;50.948;10.696;2024-02-28T11:17:26;7.70;99.90
30572;DHT22;17348;50.948;10.696;2024-02-28T11:20:31;7.80;99.90
30572;DHT22;17348;50.948;10.696;2024-02-28T11:23:35;7.90;99.90
30572;DHT22;17348;50.948;10.696;2024-02-28T11:26:38;8.00;99.90
30572;DHT22;17348;50.948;10.696;2024-02-28T11:29:41;8.20;99.90
30572;DHT22;17348;50.948;10.696;2024-02-28T11:32:44;8.40;99.90
30572;DHT22;17348;50.948;10.696;2024-02-28T11:35:54;8.50;99.90
30572;DHT22;17348;50.948;10.696;2024-02-28T11:38:57;8.60;99.90
30572;DHT22;17348;50.948;10.696;2024-02-28T11:42:09;8.70;99.90
30572;DHT22;17348;50.948;10.696;2024-02-28T11:45:11;8.80;99.90
30572;DHT22;17348;50.948;10.696;2024-02-28T11:48:16;8.90;99.90
30572;DHT22;17348;50.948;10.696;2024-02-28T11:51:18;8.80;99.90
30572;DHT22;17348;50.948;10.696;2024-02-28T11:54:20;8.80;99.90
30572;DHT22;17348;50.948;10.696;2024-02-28T11:57:23;8.80;99.90
30572;DHT22;17348;50.948;10.696;2024-02-28T12:00:25;8.80;99.90
30572;DHT22;17348;50.948;10.696;2024-02-28T12:03:29;8.80;99.90
30572;DHT22;17348;50.948;10.696;2024-02-28T12:06:32;8.80;99.90
30572;DHT22;17348;50.948;10.696;2024-02-28T12:09:34;8.80;99.90
30572;DHT22;17348;50.948;10.696;2024-02-28T12:12:38;8.80;99.90
30572;DHT22;17348;50.948;10.696;2024-02-28T12:15:42;8.80;99.90
30572;DHT22;17348;50.948;10.696;2024-02-28T12:18:47;8.80;99.90
30572;DHT22;17348;50.948;10.696;2024-02-28T12:21:49;8.80;99.90
30572;DHT22;17348;50.948;10.696;2024-02-28T12:24:52;8.80;99.90
30572;DHT22;17348;50.948;10.696;2024-02-28T12:27:54;8.90;99.90
30572;DHT22;17348;50.948;10.696;2024-02-28T12:30:56;8.90;99.90
30572;DHT22;17348;50.948;10.696;2024-02-28T12:34:00;8.80;99.90
30572;DHT22;17348;50.948;10.696;2024-02-28T12:37:04;8.80;99.90
30572;DHT22;17348;50.948;10.696;2024-02-28T12:40:08;8.90;99.90
30572;DHT22;17348;50.948;10.696;2024-02-28T12:43:11;9.00;99.90
30572;DHT22;17348;50.948;10.696;2024-02-28T12:46:15;9.10;99.90
30572;DHT22;17348;50.948;10.696;2024-02-28T12:49:19;9.10;99.90
30572;DHT22;17348;50.948;10.696;2024-02-28T12:52:21;9.10;99.90
30572;DHT22;17348;50.948;10.696;2024-02-28T12:55:24;9.20;99.90
30572;DHT22;17348;50.948;10.696;2024-02-28T12:58:26;9.10;99.90
30572;DHT22;17348;50.948;10.696;2024-02-28T13:01:28;9.10;99.90
30572;DHT22;17348;50.948;10.696;2024-02-28T13:04:32;9.20;99.90
30572;DHT22;17348;50.948;10.696;2024-02-28T13:07:35;9.10;99.90
30572;DHT22;17348;50.948;10.696;2024-02-28T13:10:38;9.00;99.90
30572;DHT22;17348;50.948;10.696;2024-02-28T13:13:42;9.00;99.90
30572;DHT22;17348;50.948;10.696;2024-02-28T13:16:44;8.90;99.90
30572;DHT22;17348;50.948;10.696;2024-02-28T13:19:48;8.90;99.90
30572;DHT22;17348;50.948;10.696;2024-02-28T13:22:50;9.00;99.90
30572;DHT22;17348;50.948;10.696;2024-02-28T13:25:53;9.00;99.90
30572;DHT22;17348;50.948;10.696;2024-02-28T13:28:55;9.10;99.90
30572;DHT22;17348;50.948;10.696;2024-02-28T13:31:58;9.10;99.90
30572;DHT22;17348;50.948;10.696;2024-02-28T13:35:02;9.10;99.90
30572;DHT22;17348;50.948;10.696;2024-02-28T13:38:04;9.10;99.90
30572;DHT22;17348;50.948;10.696;2024-02-28T13:41:06;9.10;99.90
30572;DHT22;17348;50.948;10.696;2024-02-28T13:44:08;9.00;99.90
30572;DHT22;17348;50.948;10.696;2024-02-28T13:47:11;9.00;99.90
30572;DHT22;17348;50.948;10.696;2024-02-28T13:50:15;9.10;99.90
30572;DHT22;17348;50.948;10.696;2024-02-28T13:53:18;9.20;99.90
30572;DHT22;17348;50.948;10.696;2024-02-28T13:56:20;9.20;99.90
30572;DHT22;17348;50.948;10.696;2024-02-28T13:59:22;9.20;99.90
30572;DHT22;17348;50.948;10.696;2024-02-28T14:02:25;9.20;99.90
30572;DHT22;17348;50.948;10.696;2024-02-28T14:05:29;9.20;99.90
30572;DHT22;17348;50.948;10.696;2024-02-28T14:08:31;9.20;99.90
30572;DHT22;17348;50.948;10.696;2024-02-28T14:11:34;9.20;99.90
30572;DHT22;17348;50.948;10.696;2024-02-28T14:14:36;9.20;99.90
30572;DHT22;17348;50.948;10.696;2024-02-28T14:17:40;9.20;99.90
30572;DHT22;17348;50.948;10.696;2024-02-28T14:20:45;9.20;99.90
30572;DHT22;17348;50.948;10.696;2024-02-28T14:23:47;9.20;99.90
30572;DHT22;17348;50.948;10.696;2024-02-28T14:26:49;9.20;99.90
30572;DHT22;17348;50.948;10.696;2024-02-28T14:29:52;9.30;99.90
30572;DHT22;17348;50.948;10.696;2024-02-28T14:32:54;9.30;99.90
30572;DHT22;17348;50.948;10.696;2024-02-28T14:35:58;9.30;99.90
30572;DHT22;17348;50.948;10.696;2024-02-28T14:39:01;9.20;99.10
30572;DHT22;17348;50.948;10.696;2024-02-28T14:42:04;9.20;99.90
30572;DHT22;17348;50.948;10.696;2024-02-28T14:45:07;9.20;99.90
30572;DHT22;17348;50.948;10.696;2024-02-28T14:48:09;9.30;99.90
30572;DHT22;17348;50.948;10.696;2024-02-28T14:51:13;9.30;99.90
30572;DHT22;17348;50.948;10.696;2024-02-28T14:54:15;9.40;99.90
30572;DHT22;17348;50.948;10.696;2024-02-28T14:57:20;9.40;99.40
30572;DHT22;17348;50.948;10.696;2024-02-28T15:00:22;9.40;98.60
30572;DHT22;17348;50.948;10.696;2024-02-28T15:03:24;9.30;98.10
30572;DHT22;17348;50.948;10.696;2024-02-28T15:06:28;9.30;99.10
30572;DHT22;17348;50.948;10.696;2024-02-28T15:09:30;9.20;99.70
30572;DHT22;17348;50.948;10.696;2024-02-28T15:12:35;9.20;99.90
30572;DHT22;17348;50.948;10.696;2024-02-28T15:15:38;9.20;99.90
30572;DHT22;17348;50.948;10.696;2024-02-28T15:18:40;9.20;99.90
30572;DHT22;17348;50.948;10.696;2024-02-28T15:21:44;9.20;99.90
30572;DHT22;17348;50.948;10.696;2024-02-28T15:24:47;9.20;99.90
30572;DHT22;17348;50.948;10.696;2024-02-28T15:27:49;9.20;99.90
30572;DHT22;17348;50.948;10.696;2024-02-28T15:30:51;9.10;99.90
30572;DHT22;17348;50.948;10.696;2024-02-28T15:33:54;9.00;99.90
30572;DHT22;17348;50.948;10.696;2024-02-28T15:36:57;9.00;99.90
30572;DHT22;17348;50.948;10.696;2024-02-28T15:40:00;9.00;99.90
30572;DHT22;17348;50.948;10.696;2024-02-28T15:43:02;8.90;99.90
30572;DHT22;17348;50.948;10.696;2024-02-28T15:46:04;8.90;99.90
30572;DHT22;17348;50.948;10.696;2024-02-28T15:49:07;8.80;99.90
30572;DHT22;17348;50.948;10.696;2024-02-28T15:52:11;8.80;99.90
30572;DHT22;17348;50.948;10.696;2024-02-28T15:55:14;8.80;99.90
30572;DHT22;17348;50.948;10.696;2024-02-28T15:58:21;8.80;99.90
30572;DHT22;17348;50.948;10.696;2024-02-28T16:01:23;8.70;99.90
30572;DHT22;17348;50.948;10.696;2024-02-28T16:04:26;8.70;99.90
30572;DHT22;17348;50.948;10.696;2024-02-28T16:07:29;8.60;99.90
30572;DHT22;17348;50.948;10.696;2024-02-28T16:10:32;8.60;99.90
30572;DHT22;17348;50.948;10.696;2024-02-28T16:13:34;8.60;99.90
30572;DHT22;17348;50.948;10.696;2024-02-28T16:16:36;8.50;99.90
30572;DHT22;17348;50.948;10.696;2024-02-28T16:19:38;8.40;99.90
30572;DHT22;17348;50.948;10.696;2024-02-28T16:22:42;8.40;99.90
30572;DHT22;17348;50.948;10.696;2024-02-28T16:25:44;8.30;99.90
30572;DHT22;17348;50.948;10.696;2024-02-28T16:28:47;8.30;99.90
30572;DHT22;17348;50.948;10.696;2024-02-28T16:31:50;8.20;99.90
30572;DHT22;17348;50.948;10.696;2024-02-28T16:34:52;8.10;99.90
30572;DHT22;17348;50.948;10.696;2024-02-28T16:37:55;8.10;99.90
30572;DHT22;17348;50.948;10.696;2024-02-28T16:40:58;7.90;99.90
30572;DHT22;17348;50.948;10.696;2024-02-28T16:44:02;7.90;99.90
30572;DHT22;17348;50.948;10.696;2024-02-28T16:47:05;7.80;99.90
30572;DHT22;17348;50.948;10.696;2024-02-28T16:50:08;7.70;99.90
30572;DHT22;17348;50.948;10.696;2024-02-28T16:53:12;7.70;99.90
30572;DHT22;17348;50.948;10.696;2024-02-28T16:56:15;7.60;99.90
30572;DHT22;17348;50.948;10.696;2024-02-28T16:59:17;7.60;99.90
30572;DHT22;17348;50.948;10.696;2024-02-28T17:02:20;7.50;99.90
30572;DHT22;17348;50.948;10.696;2024-02-28T17:05:22;7.40;99.90
30572;DHT22;17348;50.948;10.696;2024-02-28T17:08:26;7.30;99.90
30572;DHT22;17348;50.948;10.696;2024-02-28T17:11:28;7.20;99.90
30572;DHT22;17348;50.948;10.696;2024-02-28T17:14:30;7.10;99.90
30572;DHT22;17348;50.948;10.696;2024-02-28T17:17:33;7.00;99.90
30572;DHT22;17348;50.948;10.696;2024-02-28T17:20:36;6.90;99.90
30572;DHT22;17348;50.948;10.696;2024-02-28T17:23:40;6.90;99.90
30572;DHT22;17348;50.948;10.696;2024-02-28T17:26:42;6.90;99.90
30572;DHT22;17348;50.948;10.696;2024-02-28T17:29:44;6.70;99.90
30572;DHT22;17348;50.948;10.696;2024-02-28T17:32:46;6.60;99.90
30572;DHT22;17348;50.948;10.696;2024-02-28T17:35:49;6.50;99.90
30572;DHT22;17348;50.948;10.696;2024-02-28T17:38:53;6.50;99.90
30572;DHT22;17348;50.948;10.696;2024-02-28T17:41:55;6.50;99.90
30572;DHT22;17348;50.948;10.696;2024-02-28T17:44:59;6.40;99.90
30572;DHT22;17348;50.948;10.696;2024-02-28T17:48:03;6.30;99.90
30572;DHT22;17348;50.948;10.696;2024-02-28T17:51:07;6.20;99.90
30572;DHT22;17348;50.948;10.696;2024-02-28T17:54:11;6.10;99.90
30572;DHT22;17348;50.948;10.696;2024-02-28T17:57:14;6.00;99.90
30572;DHT22;17348;50.948;10.696;2024-02-28T18:00:18;6.00;99.90
30572;DHT22;17348;50.948;10.696;2024-02-28T18:03:26;5.90;99.90
30572;DHT22;17348;50.948;10.696;2024-02-28T18:06:28;5.90;99.90
30572;DHT22;17348;50.948;10.696;2024-02-28T18:09:33;5.80;99.90
30572;DHT22;17348;50.948;10.696;2024-02-28T18:12:36;5.80;99.90
30572;DHT22;17348;50.948;10.696;2024-02-28T18:15:38;5.80;99.90
30572;DHT22;17348;50.948;10.696;2024-02-28T18:18:40;5.70;99.90
30572;DHT22;17348;50.948;10.696;2024-02-28T18:21:42;5.70;99.90
30572;DHT22;17348;50.948;10.696;2024-02-28T18:24:46;5.60;99.90
30572;DHT22;17348;50.948;10.696;2024-02-28T18:27:48;5.50;99.90
30572;DHT22;17348;50.948;10.696;2024-02-28T18:30:51;5.50;99.90
30572;DHT22;17348;50.948;10.696;2024-02-28T18:33:53;5.40;99.90
30572;DHT22;17348;50.948;10.696;2024-02-28T18:36:56;5.30;99.90
30572;DHT22;17348;50.948;10.696;2024-02-28T18:40:00;5.30;99.90
30572;DHT22;17348;50.948;10.696;2024-02-28T18:43:05;5.30;99.90
30572;DHT22;17348;50.948;10.696;2024-02-28T18:46:07;5.20;99.90
30572;DHT22;17348;50.948;10.696;2024-02-28T18:49:12;5.10;99.90
30572;DHT22;17348;50.948;10.696;2024-02-28T18:52:15;5.10;99.90
30572;DHT22;17348;50.948;10.696;2024-02-28T18:55:19;5.00;99.90
30572;DHT22;17348;50.948;10.696;2024-02-28T18:58:25;4.90;99.90
30572;DHT22;17348;50.948;10.696;2024-02-28T19:01:28;4.90;99.90
30572;DHT22;17348;50.948;10.696;2024-02-28T19:04:30;4.80;99.90
30572;DHT22;17348;50.948;10.696;2024-02-28T19:07:32;4.80;99.90
30572;DHT22;17348;50.948;10.696;2024-02-28T19:10:36;4.80;99.90
30572;DHT22;17348;50.948;10.696;2024-02-28T19:13:38;4.70;99.90